createdAt,value
2018-12-10T06:13:53.491Z,47.70
2018-12-10T06:16:22.352Z,46.30
2018-12-10T06:18:51.178Z,46.60
2018-12-10T06:21:23.144Z,46.60
2018-12-10T06:23:51.979Z,46.40
2018-12-10T06:26:20.870Z,46.30
2018-12-10T06:28:49.700Z,47.00
2018-12-10T06:31:18.553Z,46.40
2018-12-10T06:33:47.380Z,46.40
2018-12-10T06:36:17.071Z,46.00
2018-12-10T06:38:46.024Z,46.40
2018-12-10T06:41:14.913Z,46.50
2018-12-10T06:43:44.276Z,46.50
2018-12-10T06:46:13.422Z,46.60
2018-12-10T06:48:42.271Z,46.70
2018-12-10T06:51:11.097Z,47.00
2018-12-10T06:53:39.959Z,46.90
2018-12-10T06:56:09.239Z,46.90
2018-12-10T06:58:38.051Z,46.90
2018-12-10T07:01:06.913Z,47.00
2018-12-10T07:03:36.555Z,47.00
2018-12-10T07:06:06.169Z,46.90
2018-12-10T07:08:35.444Z,46.90
2018-12-10T07:11:04.312Z,47.00
2018-12-10T07:13:33.201Z,47.00
2018-12-10T07:16:02.067Z,47.00
2018-12-10T07:18:32.141Z,47.20
2018-12-10T07:21:01.255Z,47.30
2018-12-10T07:23:31.927Z,47.40
2018-12-10T07:26:00.777Z,47.30
2018-12-10T07:28:30.021Z,47.50
2018-12-10T07:30:58.855Z,47.40
2018-12-10T07:33:27.691Z,47.30
2018-12-10T07:35:56.675Z,47.20
2018-12-10T07:38:25.681Z,47.40
2018-12-10T07:40:54.909Z,47.30
2018-12-10T07:43:24.836Z,47.00
2018-12-10T07:45:53.694Z,47.10
2018-12-10T07:48:23.433Z,47.20
2018-12-10T07:50:52.876Z,47.40
2018-12-10T07:53:21.834Z,47.20
2018-12-10T07:55:52.928Z,47.40
2018-12-10T07:58:21.963Z,47.40
2018-12-10T08:00:50.854Z,47.70
2018-12-10T08:03:19.720Z,47.80
2018-12-10T08:05:48.968Z,47.80
2018-12-10T08:08:17.803Z,47.80
2018-12-10T08:10:47.040Z,47.50
2018-12-10T08:13:15.887Z,47.60
2018-12-10T08:15:45.369Z,47.20
2018-12-10T08:18:14.648Z,46.70
2018-12-10T08:20:43.483Z,46.70
2018-12-10T08:23:12.363Z,46.60
2018-12-10T08:25:41.511Z,47.50
2018-12-10T08:28:10.400Z,46.10
2018-12-10T08:30:39.271Z,46.60
2018-12-10T08:33:08.192Z,46.90
2018-12-10T08:35:40.822Z,46.50
2018-12-10T08:38:05.935Z,46.20
2018-12-10T08:40:35.221Z,46.20
2018-12-10T08:43:04.919Z,46.60
2018-12-10T08:45:33.618Z,46.30
2018-12-10T08:48:02.794Z,45.90
2018-12-10T08:50:34.263Z,46.30
2018-12-10T08:53:04.445Z,46.00
2018-12-10T08:55:33.343Z,45.80
2018-12-10T08:58:02.047Z,46.70
2018-12-10T09:00:31.167Z,47.40
2018-12-10T09:03:00.216Z,46.30
2018-12-10T09:05:28.964Z,46.00
2018-12-10T09:07:57.675Z,45.90
2018-12-10T09:10:26.882Z,45.10
2018-12-10T09:12:56.390Z,44.60
2018-12-10T09:15:25.131Z,44.00
2018-12-10T09:17:54.286Z,44.20
2018-12-10T09:20:23.024Z,43.90
2018-12-10T09:22:51.756Z,43.90
2018-12-10T09:25:24.507Z,44.30
2018-12-10T09:27:49.891Z,44.30
2018-12-10T09:30:22.473Z,45.00
2018-12-10T09:32:51.156Z,43.80
2018-12-10T09:35:20.023Z,44.20
2018-12-10T09:37:48.775Z,43.70
2018-12-10T09:40:17.969Z,43.60
2018-12-10T09:42:46.659Z,43.60
2018-12-10T09:47:43.926Z,43.70
2018-12-10T09:50:13.001Z,43.00
2018-12-10T09:52:41.743Z,43.00
2018-12-10T09:55:10.795Z,42.60
2018-12-10T09:57:40.520Z,42.80
2018-12-10T10:00:10.508Z,42.80
2018-12-10T10:02:39.311Z,42.60
2018-12-10T10:05:08.511Z,41.90
2018-12-10T10:07:37.579Z,42.90
2018-12-10T10:10:06.795Z,42.80
2018-12-10T10:12:35.584Z,43.30
2018-12-10T10:15:04.963Z,43.00
2018-12-10T10:17:40.855Z,42.90
2018-12-10T10:20:10.870Z,42.20
2018-12-10T10:22:41.419Z,42.40
2018-12-10T10:25:10.620Z,42.80
2018-12-10T10:27:39.748Z,42.40
2018-12-10T10:30:08.503Z,42.80
2018-12-10T10:32:40.288Z,42.70
2018-12-10T10:35:09.077Z,43.00
2018-12-10T10:37:37.811Z,43.30
2018-12-10T10:40:07.338Z,43.50
2018-12-10T10:42:36.048Z,43.60
2018-12-10T10:45:05.652Z,43.70
2018-12-10T10:47:35.718Z,43.60
2018-12-10T10:50:06.450Z,43.60
2018-12-10T10:52:35.494Z,43.50
2018-12-10T10:55:08.631Z,43.70
2018-12-10T10:57:37.703Z,43.70
2018-12-10T11:00:13.960Z,43.60
2018-12-10T11:02:47.454Z,44.20
2018-12-10T11:05:16.896Z,43.70
2018-12-10T11:07:45.981Z,43.60
2018-12-10T11:10:15.424Z,43.60
2018-12-10T11:12:45.840Z,43.60
2018-12-10T11:15:14.619Z,43.70
2018-12-10T11:17:46.147Z,43.70
2018-12-10T11:20:15.151Z,43.10
2018-12-10T11:22:44.712Z,43.40
2018-12-10T11:25:13.791Z,43.80
2018-12-10T11:27:43.214Z,43.70
2018-12-10T11:30:12.565Z,44.10
2018-12-10T11:32:41.356Z,43.90
2018-12-10T11:35:10.051Z,43.70
2018-12-10T11:37:39.448Z,43.60
2018-12-10T11:40:08.395Z,43.60
2018-12-10T11:42:37.163Z,43.40
2018-12-10T11:45:06.636Z,42.80
2018-12-10T11:47:35.763Z,43.30
2018-12-10T11:50:04.799Z,42.80
2018-12-10T11:52:34.796Z,42.90
2018-12-10T12:00:01.787Z,43.60
2018-12-10T12:02:31.184Z,43.70
2018-12-10T12:05:00.243Z,43.60
2018-12-10T12:07:29.647Z,44.00
2018-12-10T12:09:58.687Z,43.90
2018-12-10T12:12:28.576Z,43.90
2018-12-10T12:14:57.971Z,43.80
2018-12-10T12:17:26.664Z,43.90
2018-12-10T12:19:56.148Z,43.90
2018-12-10T12:22:26.268Z,43.90
2018-12-10T12:24:55.787Z,43.80
2018-12-10T12:27:25.187Z,44.60
2018-12-10T12:29:54.415Z,44.20
2018-12-10T12:32:23.139Z,43.70
2018-12-10T12:34:51.823Z,43.80
2018-12-10T12:37:21.256Z,44.50
2018-12-10T12:39:50.248Z,43.70
2018-12-10T12:42:19.008Z,43.80
2018-12-10T12:44:48.167Z,44.20
2018-12-10T12:47:17.143Z,43.80
2018-12-10T12:49:45.979Z,44.20
2018-12-10T12:52:16.200Z,44.10
2018-12-10T12:54:44.880Z,43.90
2018-12-10T12:57:13.600Z,43.60
2018-12-10T12:59:42.416Z,44.00
2018-12-10T13:02:11.628Z,43.70
2018-12-10T13:04:40.433Z,43.60
2018-12-10T13:07:09.256Z,43.90
2018-12-10T13:12:07.689Z,43.70
2018-12-10T13:14:36.567Z,43.90
2018-12-10T13:17:05.776Z,43.90
2018-12-10T13:19:35.135Z,44.70
2018-12-10T13:22:03.848Z,43.70
2018-12-10T13:24:35.874Z,43.80
2018-12-10T13:27:03.968Z,43.70
2018-12-10T13:29:32.664Z,43.70
2018-12-10T13:32:01.839Z,43.60
2018-12-10T13:34:30.811Z,43.70
2018-12-10T13:37:00.201Z,43.40
2018-12-10T13:39:29.705Z,43.40
2018-12-10T13:41:58.882Z,43.30
2018-12-10T13:44:27.648Z,43.30
2018-12-10T13:46:56.652Z,42.70
2018-12-10T13:49:26.857Z,43.00
2018-12-10T13:51:55.645Z,42.90
2018-12-10T13:54:24.644Z,42.80
2018-12-10T13:56:53.455Z,43.20
2018-12-10T13:59:22.283Z,42.60
2018-12-10T14:01:51.030Z,42.70
2018-12-10T14:04:25.141Z,42.60
2018-12-10T14:06:54.011Z,42.30
2018-12-10T14:09:22.718Z,42.30
2018-12-10T14:11:51.415Z,42.20
2018-12-10T14:14:21.800Z,42.40
2018-12-10T14:16:51.245Z,41.80
2018-12-10T14:21:48.784Z,41.60
2018-12-10T14:24:18.516Z,42.10
2018-12-10T14:26:48.193Z,41.90
2018-12-10T14:29:17.572Z,41.60
2018-12-10T14:31:46.339Z,41.40
2018-12-10T14:34:20.552Z,41.40
2018-12-10T14:36:49.377Z,41.30
2018-12-10T14:39:19.443Z,42.10
2018-12-10T14:41:48.604Z,41.10
2018-12-10T14:44:17.437Z,41.70
2018-12-10T14:46:47.435Z,41.00
2018-12-10T14:49:16.912Z,41.00
2018-12-10T14:51:46.352Z,41.70
2018-12-10T14:54:15.753Z,40.40
2018-12-10T14:56:45.384Z,40.90
2018-12-10T14:59:14.176Z,40.90
2018-12-10T15:01:43.637Z,40.70
2018-12-10T15:04:12.641Z,40.70
2018-12-10T15:06:41.833Z,40.30
2018-12-10T15:09:11.827Z,40.90
2018-12-10T15:11:41.736Z,40.60
2018-12-10T15:14:11.874Z,40.70
2018-12-10T15:16:42.118Z,40.60
2018-12-10T15:19:13.034Z,39.90
2018-12-10T15:21:42.433Z,39.90
2018-12-10T15:24:11.675Z,40.10
2018-12-10T15:26:41.808Z,39.80
2018-12-10T15:29:10.500Z,39.40
2018-12-10T15:31:41.469Z,38.90
2018-12-10T15:34:10.895Z,39.40
2018-12-10T15:36:41.309Z,39.80
2018-12-10T15:39:10.770Z,40.20
2018-12-10T15:41:39.845Z,41.00
2018-12-10T15:44:08.996Z,39.30
2018-12-10T15:46:38.071Z,39.90
2018-12-10T15:49:06.960Z,40.30
2018-12-10T15:51:36.215Z,39.40
2018-12-10T15:54:04.944Z,40.10
2018-12-10T15:56:34.459Z,39.00
2018-12-10T15:59:03.555Z,38.80
2018-12-10T16:01:32.704Z,39.70
2018-12-10T16:04:02.219Z,39.90
2018-12-10T16:06:31.312Z,39.40
2018-12-10T16:09:02.413Z,39.40
2018-12-10T16:14:01.215Z,39.10
2018-12-10T16:16:30.361Z,39.90
2018-12-10T16:18:59.471Z,39.30
2018-12-10T16:21:28.208Z,39.80
2018-12-10T16:23:57.377Z,39.80
2018-12-10T16:26:26.374Z,40.00
2018-12-10T16:28:55.215Z,40.40
2018-12-10T16:31:24.692Z,39.80
2018-12-10T16:33:54.132Z,39.90
2018-12-10T16:36:24.565Z,39.90
2018-12-10T16:38:53.652Z,39.00
2018-12-10T16:41:23.175Z,38.80
2018-12-10T16:43:52.621Z,38.60
2018-12-10T16:46:22.449Z,39.10
2018-12-10T16:48:51.223Z,39.30
2018-12-10T16:51:20.387Z,39.10
2018-12-10T16:53:51.209Z,39.00
2018-12-10T16:56:20.219Z,39.30
2018-12-10T16:58:49.600Z,39.10
2018-12-10T17:01:19.534Z,39.30
2018-12-10T17:03:48.731Z,39.50
2018-12-10T17:06:18.152Z,40.00
2018-12-10T17:08:46.894Z,40.00
2018-12-10T17:11:16.003Z,39.80
2018-12-10T17:13:46.323Z,40.00
2018-12-10T17:16:15.477Z,40.00
2018-12-10T17:18:44.581Z,40.30
2018-12-10T17:21:13.285Z,40.30
2018-12-10T17:23:43.001Z,40.20
2018-12-10T17:26:12.497Z,40.40
2018-12-10T17:28:41.295Z,40.30
2018-12-10T17:31:11.327Z,40.60
2018-12-10T17:33:41.787Z,40.50
2018-12-10T17:36:10.805Z,40.60
2018-12-10T17:38:40.323Z,40.20
2018-12-10T17:41:09.567Z,40.50
2018-12-10T17:43:39.047Z,40.60
2018-12-10T17:46:08.436Z,40.30
2018-12-10T17:48:37.596Z,40.30
2018-12-10T17:51:06.629Z,40.30
2018-12-10T17:53:35.694Z,40.30
2018-12-10T17:56:06.412Z,40.50
2018-12-10T17:58:35.123Z,40.40
2018-12-10T18:01:03.823Z,40.60
2018-12-10T18:03:32.661Z,40.70
2018-12-10T18:06:02.016Z,40.40
2018-12-10T18:08:31.177Z,39.80
2018-12-10T18:11:00.737Z,40.30
2018-12-10T18:13:29.743Z,40.50
2018-12-10T18:15:58.854Z,40.40
2018-12-10T18:18:27.868Z,40.60
2018-12-10T18:20:57.303Z,40.30
2018-12-10T18:23:26.535Z,40.60
2018-12-10T18:25:55.271Z,40.40
2018-12-10T18:28:25.380Z,40.40
2018-12-10T18:30:54.198Z,40.50
2018-12-10T18:33:23.379Z,40.50
2018-12-10T18:35:54.338Z,40.30
2018-12-10T18:38:23.267Z,40.50
2018-12-10T18:40:51.955Z,40.40
2018-12-10T18:43:21.096Z,40.50
2018-12-10T18:45:51.279Z,40.90
2018-12-10T18:48:21.229Z,40.50
2018-12-10T18:50:50.256Z,40.70
2018-12-10T18:53:19.504Z,40.70
2018-12-10T18:55:48.881Z,40.40
2018-12-10T18:58:17.988Z,40.40
2018-12-10T19:00:47.180Z,40.80
2018-12-10T19:03:16.356Z,41.00
2018-12-10T19:05:45.177Z,40.90
2018-12-10T19:08:15.578Z,40.80
2018-12-10T19:10:44.389Z,40.90
2018-12-10T19:13:13.789Z,41.10
2018-12-10T19:15:43.154Z,41.80
2018-12-10T19:18:11.940Z,41.30
2018-12-10T19:20:41.064Z,41.20
2018-12-10T19:23:10.576Z,41.20
2018-12-10T19:25:42.122Z,41.20
2018-12-10T19:28:11.249Z,41.60
2018-12-10T19:30:40.656Z,41.40
2018-12-10T19:33:09.375Z,41.60
2018-12-10T19:35:38.359Z,41.40
2018-12-10T19:38:09.104Z,41.50
2018-12-10T19:40:38.803Z,41.20
2018-12-10T19:43:07.836Z,41.00
2018-12-10T19:45:37.025Z,40.90
2018-12-10T19:48:06.435Z,41.30
2018-12-10T19:50:35.328Z,41.20
2018-12-10T19:53:04.984Z,41.10
2018-12-10T19:55:34.274Z,41.10
2018-12-10T19:58:03.507Z,41.60
2018-12-10T20:00:33.331Z,41.40
2018-12-10T20:03:05.223Z,41.30
2018-12-10T20:05:38.671Z,41.40
2018-12-10T20:08:08.711Z,41.30
2018-12-10T20:10:37.790Z,41.30
2018-12-10T20:13:07.203Z,42.00
2018-12-10T20:15:36.724Z,41.70
2018-12-10T20:18:05.795Z,42.10
2018-12-10T20:20:35.292Z,41.00
2018-12-10T20:23:04.418Z,41.10
2018-12-10T20:25:34.721Z,41.10
2018-12-10T20:28:03.815Z,41.00
2018-12-10T20:30:32.616Z,40.90
2018-12-10T20:33:01.130Z,41.50
2018-12-10T20:35:29.907Z,41.20
2018-12-10T20:37:58.630Z,41.10
2018-12-10T20:40:28.936Z,40.90
2018-12-10T20:42:58.143Z,41.00
2018-12-10T20:45:27.305Z,41.10
2018-12-10T20:47:56.893Z,40.90
2018-12-10T20:50:26.997Z,41.00
2018-12-10T20:52:56.183Z,41.20
2018-12-10T20:55:25.929Z,41.70
2018-12-10T20:57:55.687Z,41.60
2018-12-10T21:00:24.807Z,40.90
2018-12-10T21:02:54.225Z,40.80
2018-12-10T21:05:23.004Z,41.00
2018-12-10T21:07:52.039Z,41.00
2018-12-10T21:10:20.828Z,40.90
2018-12-10T21:12:50.237Z,41.20
2018-12-10T21:15:19.078Z,41.00
2018-12-10T21:17:48.176Z,41.20
2018-12-10T21:20:18.535Z,41.10
2018-12-10T21:22:47.286Z,41.20
2018-12-10T21:25:17.091Z,41.80
2018-12-10T21:27:45.847Z,41.40
2018-12-10T21:30:14.531Z,41.20
2018-12-10T21:32:43.639Z,41.20
2018-12-10T21:35:12.805Z,40.90
2018-12-10T21:37:42.277Z,40.80
2018-12-10T21:40:11.120Z,40.80
2018-12-10T21:42:39.976Z,40.80
2018-12-10T21:45:09.094Z,40.80
2018-12-10T21:47:37.891Z,40.80
2018-12-10T21:50:06.855Z,40.90
2018-12-10T21:52:35.969Z,40.90
2018-12-10T21:55:06.028Z,40.80
